sensor_id;sensor_type;location;lat;lon;timestamp;temperature;humidity
11925;DHT22;6022;48.768;18.608;2022-11-15T00:01:18;3.70;99.90
11925;DHT22;6022;48.768;18.608;2022-11-15T00:03:46;3.60;99.90
11925;DHT22;6022;48.768;18.608;2022-11-15T00:06:17;3.60;99.90
11925;DHT22;6022;48.768;18.608;2022-11-15T00:08:44;3.70;99.90
11925;DHT22;6022;48.768;18.608;2022-11-15T00:11:12;3.70;99.90
11925;DHT22;6022;48.768;18.608;2022-11-15T00:13:40;3.60;99.90
11925;DHT22;6022;48.768;18.608;2022-11-15T00:16:09;3.50;99.90
11925;DHT22;6022;48.768;18.608;2022-11-15T00:18:38;3.50;99.90
11925;DHT22;6022;48.768;18.608;2022-11-15T00:21:09;3.30;99.90
11925;DHT22;6022;48.768;18.608;2022-11-15T00:23:37;3.40;99.90
11925;DHT22;6022;48.768;18.608;2022-11-15T00:26:05;3.10;99.90
11925;DHT22;6022;48.768;18.608;2022-11-15T00:28:32;3.10;99.90
11925;DHT22;6022;48.768;18.608;2022-11-15T00:31:04;3.10;99.90
11925;DHT22;6022;48.768;18.608;2022-11-15T00:33:33;3.10;99.90
11925;DHT22;6022;48.768;18.608;2022-11-15T00:36:06;3.20;99.90
11925;DHT22;6022;48.768;18.608;2022-11-15T00:38:39;3.00;99.90
11925;DHT22;6022;48.768;18.608;2022-11-15T00:41:07;3.50;99.90
11925;DHT22;6022;48.768;18.608;2022-11-15T00:43:36;3.20;99.90
11925;DHT22;6022;48.768;18.608;2022-11-15T00:46:03;3.10;99.90
11925;DHT22;6022;48.768;18.608;2022-11-15T00:48:31;3.50;99.90
11925;DHT22;6022;48.768;18.608;2022-11-15T00:50:58;3.40;99.90
11925;DHT22;6022;48.768;18.608;2022-11-15T00:53:26;3.30;99.90
11925;DHT22;6022;48.768;18.608;2022-11-15T00:55:53;3.00;99.90
11925;DHT22;6022;48.768;18.608;2022-11-15T00:58:20;3.50;99.90
11925;DHT22;6022;48.768;18.608;2022-11-15T01:00:48;3.40;99.90
11925;DHT22;6022;48.768;18.608;2022-11-15T01:03:15;3.40;99.90
11925;DHT22;6022;48.768;18.608;2022-11-15T01:05:45;3.10;99.90
11925;DHT22;6022;48.768;18.608;2022-11-15T01:08:15;3.20;99.90
11925;DHT22;6022;48.768;18.608;2022-11-15T01:10:43;3.20;99.90
11925;DHT22;6022;48.768;18.608;2022-11-15T01:13:10;3.10;99.90
11925;DHT22;6022;48.768;18.608;2022-11-15T01:15:41;3.20;99.90
11925;DHT22;6022;48.768;18.608;2022-11-15T01:18:08;3.20;99.90
11925;DHT22;6022;48.768;18.608;2022-11-15T01:20:42;3.10;99.90
11925;DHT22;6022;48.768;18.608;2022-11-15T01:23:09;3.10;99.90
11925;DHT22;6022;48.768;18.608;2022-11-15T01:25:37;3.10;99.90
11925;DHT22;6022;48.768;18.608;2022-11-15T01:28:04;3.00;99.90
11925;DHT22;6022;48.768;18.608;2022-11-15T01:30:32;2.90;99.90
11925;DHT22;6022;48.768;18.608;2022-11-15T01:32:59;3.10;99.90
11925;DHT22;6022;48.768;18.608;2022-11-15T01:35:26;2.70;99.90
11925;DHT22;6022;48.768;18.608;2022-11-15T01:37:54;3.00;99.90
11925;DHT22;6022;48.768;18.608;2022-11-15T01:40:21;3.00;99.90
11925;DHT22;6022;48.768;18.608;2022-11-15T01:42:48;3.00;99.90
11925;DHT22;6022;48.768;18.608;2022-11-15T01:45:16;3.10;99.90
11925;DHT22;6022;48.768;18.608;2022-11-15T01:47:47;2.90;99.90
11925;DHT22;6022;48.768;18.608;2022-11-15T01:50:22;3.00;99.90
11925;DHT22;6022;48.768;18.608;2022-11-15T01:52:54;3.00;99.90
11925;DHT22;6022;48.768;18.608;2022-11-15T01:55:25;3.10;99.90
11925;DHT22;6022;48.768;18.608;2022-11-15T01:57:58;3.10;99.90
11925;DHT22;6022;48.768;18.608;2022-11-15T02:00:29;3.10;99.90
11925;DHT22;6022;48.768;18.608;2022-11-15T02:02:57;3.10;99.90
11925;DHT22;6022;48.768;18.608;2022-11-15T02:05:24;3.10;99.90
11925;DHT22;6022;48.768;18.608;2022-11-15T02:07:52;3.30;99.90
11925;DHT22;6022;48.768;18.608;2022-11-15T02:10:22;3.10;99.90
11925;DHT22;6022;48.768;18.608;2022-11-15T02:12:52;3.00;99.90
11925;DHT22;6022;48.768;18.608;2022-11-15T02:15:24;3.20;99.90
11925;DHT22;6022;48.768;18.608;2022-11-15T02:18:16;3.10;99.90
11925;DHT22;6022;48.768;18.608;2022-11-15T02:21:10;3.10;99.90
11925;DHT22;6022;48.768;18.608;2022-11-15T02:33:26;2.60;99.90
11925;DHT22;6022;48.768;18.608;2022-11-15T02:36:00;2.60;99.90
11925;DHT22;6022;48.768;18.608;2022-11-15T02:44:23;2.60;99.90
11925;DHT22;6022;48.768;18.608;2022-11-15T02:46:58;2.60;99.90
11925;DHT22;6022;48.768;18.608;2022-11-15T02:50:12;2.60;99.90
11925;DHT22;6022;48.768;18.608;2022-11-15T02:52:47;2.50;99.90
11925;DHT22;6022;48.768;18.608;2022-11-15T02:55:30;2.60;99.90
11925;DHT22;6022;48.768;18.608;2022-11-15T03:01:19;2.70;99.90
11925;DHT22;6022;48.768;18.608;2022-11-15T03:07:11;2.70;99.90
11925;DHT22;6022;48.768;18.608;2022-11-15T03:10:06;2.70;99.90
11925;DHT22;6022;48.768;18.608;2022-11-15T03:12:51;2.70;99.90
11925;DHT22;6022;48.768;18.608;2022-11-15T03:15:29;2.70;99.90
11925;DHT22;6022;48.768;18.608;2022-11-15T03:18:07;3.00;99.90
11925;DHT22;6022;48.768;18.608;2022-11-15T03:20:58;2.80;99.90
11925;DHT22;6022;48.768;18.608;2022-11-15T03:23:32;2.70;99.90
11925;DHT22;6022;48.768;18.608;2022-11-15T03:26:01;2.60;99.90
11925;DHT22;6022;48.768;18.608;2022-11-15T03:28:42;2.50;99.90
11925;DHT22;6022;48.768;18.608;2022-11-15T03:31:18;2.70;99.90
11925;DHT22;6022;48.768;18.608;2022-11-15T03:37:01;2.90;99.90
11925;DHT22;6022;48.768;18.608;2022-11-15T03:39:29;2.70;99.90
11925;DHT22;6022;48.768;18.608;2022-11-15T03:45:22;3.10;99.90
11925;DHT22;6022;48.768;18.608;2022-11-15T03:48:07;3.20;99.90
11925;DHT22;6022;48.768;18.608;2022-11-15T03:50:42;3.10;99.90
11925;DHT22;6022;48.768;18.608;2022-11-15T03:53:12;3.30;99.90
11925;DHT22;6022;48.768;18.608;2022-11-15T03:55:39;3.20;99.90
11925;DHT22;6022;48.768;18.608;2022-11-15T03:58:07;3.90;99.90
11925;DHT22;6022;48.768;18.608;2022-11-15T04:00:34;3.40;99.90
11925;DHT22;6022;48.768;18.608;2022-11-15T04:03:02;3.30;99.90
11925;DHT22;6022;48.768;18.608;2022-11-15T04:05:29;3.40;99.90
11925;DHT22;6022;48.768;18.608;2022-11-15T04:07:56;3.40;99.90
11925;DHT22;6022;48.768;18.608;2022-11-15T04:10:23;3.40;99.90
11925;DHT22;6022;48.768;18.608;2022-11-15T04:12:51;3.50;99.90
11925;DHT22;6022;48.768;18.608;2022-11-15T04:15:21;3.40;99.90
11925;DHT22;6022;48.768;18.608;2022-11-15T04:17:55;3.80;99.90
11925;DHT22;6022;48.768;18.608;2022-11-15T04:20:29;3.40;99.90
11925;DHT22;6022;48.768;18.608;2022-11-15T04:23:21;3.60;99.90
11925;DHT22;6022;48.768;18.608;2022-11-15T04:26:10;3.50;99.90
11925;DHT22;6022;48.768;18.608;2022-11-15T04:28:41;3.50;99.90
11925;DHT22;6022;48.768;18.608;2022-11-15T04:31:27;3.70;99.90
11925;DHT22;6022;48.768;18.608;2022-11-15T04:33:55;3.50;99.90
11925;DHT22;6022;48.768;18.608;2022-11-15T04:36:22;3.40;99.90
11925;DHT22;6022;48.768;18.608;2022-11-15T04:39:08;3.30;99.90
11925;DHT22;6022;48.768;18.608;2022-11-15T04:41:36;3.70;99.90
11925;DHT22;6022;48.768;18.608;2022-11-15T04:44:03;3.70;99.90
11925;DHT22;6022;48.768;18.608;2022-11-15T04:46:30;3.80;99.90
11925;DHT22;6022;48.768;18.608;2022-11-15T04:48:57;3.80;99.90
11925;DHT22;6022;48.768;18.608;2022-11-15T04:51:25;3.90;99.90
11925;DHT22;6022;48.768;18.608;2022-11-15T04:53:53;3.80;99.90
11925;DHT22;6022;48.768;18.608;2022-11-15T04:56:20;3.80;99.90
11925;DHT22;6022;48.768;18.608;2022-11-15T04:58:50;3.80;99.90
11925;DHT22;6022;48.768;18.608;2022-11-15T05:01:18;4.00;99.90
11925;DHT22;6022;48.768;18.608;2022-11-15T05:03:45;3.90;99.90
11925;DHT22;6022;48.768;18.608;2022-11-15T05:06:31;3.90;99.90
11925;DHT22;6022;48.768;18.608;2022-11-15T05:08:58;4.00;99.90
11925;DHT22;6022;48.768;18.608;2022-11-15T05:11:26;3.90;99.90
11925;DHT22;6022;48.768;18.608;2022-11-15T05:13:54;3.90;99.90
11925;DHT22;6022;48.768;18.608;2022-11-15T05:16:22;3.80;99.90
11925;DHT22;6022;48.768;18.608;2022-11-15T05:18:53;3.80;99.90
11925;DHT22;6022;48.768;18.608;2022-11-15T05:21:21;3.80;99.90
11925;DHT22;6022;48.768;18.608;2022-11-15T05:23:49;3.90;99.90
11925;DHT22;6022;48.768;18.608;2022-11-15T05:26:18;3.90;99.90
11925;DHT22;6022;48.768;18.608;2022-11-15T05:28:45;3.80;99.90
11925;DHT22;6022;48.768;18.608;2022-11-15T05:31:14;3.70;99.90
11925;DHT22;6022;48.768;18.608;2022-11-15T05:33:43;3.80;99.90
11925;DHT22;6022;48.768;18.608;2022-11-15T05:36:27;3.70;99.90
11925;DHT22;6022;48.768;18.608;2022-11-15T05:39:04;3.90;99.90
11925;DHT22;6022;48.768;18.608;2022-11-15T05:41:56;3.90;99.90
11925;DHT22;6022;48.768;18.608;2022-11-15T05:44:38;3.90;99.90
11925;DHT22;6022;48.768;18.608;2022-11-15T05:47:20;4.00;99.90
11925;DHT22;6022;48.768;18.608;2022-11-15T05:49:52;3.80;99.90
11925;DHT22;6022;48.768;18.608;2022-11-15T05:52:23;4.00;99.90
11925;DHT22;6022;48.768;18.608;2022-11-15T05:54:56;4.00;99.90
11925;DHT22;6022;48.768;18.608;2022-11-15T05:57:25;4.00;99.90
11925;DHT22;6022;48.768;18.608;2022-11-15T05:59:54;4.30;99.90
11925;DHT22;6022;48.768;18.608;2022-11-15T06:02:21;4.10;99.90
11925;DHT22;6022;48.768;18.608;2022-11-15T06:04:49;4.00;99.90
11925;DHT22;6022;48.768;18.608;2022-11-15T06:07:16;4.40;99.90
11925;DHT22;6022;48.768;18.608;2022-11-15T06:09:43;4.30;99.90
11925;DHT22;6022;48.768;18.608;2022-11-15T06:12:10;4.40;99.90
11925;DHT22;6022;48.768;18.608;2022-11-15T06:14:38;4.20;99.90
11925;DHT22;6022;48.768;18.608;2022-11-15T06:17:05;4.20;99.90
11925;DHT22;6022;48.768;18.608;2022-11-15T06:19:37;4.20;99.90
11925;DHT22;6022;48.768;18.608;2022-11-15T06:22:04;4.20;99.90
11925;DHT22;6022;48.768;18.608;2022-11-15T06:24:31;4.20;99.90
11925;DHT22;6022;48.768;18.608;2022-11-15T06:27:00;4.30;99.90
11925;DHT22;6022;48.768;18.608;2022-11-15T06:29:27;4.20;99.90
11925;DHT22;6022;48.768;18.608;2022-11-15T06:31:55;4.40;99.90
11925;DHT22;6022;48.768;18.608;2022-11-15T06:34:22;4.40;99.90
11925;DHT22;6022;48.768;18.608;2022-11-15T06:36:49;4.50;99.90
11925;DHT22;6022;48.768;18.608;2022-11-15T06:39:16;4.50;99.90
11925;DHT22;6022;48.768;18.608;2022-11-15T06:41:44;4.60;99.90
11925;DHT22;6022;48.768;18.608;2022-11-15T06:44:11;4.70;99.90
11925;DHT22;6022;48.768;18.608;2022-11-15T06:46:38;4.60;99.90
11925;DHT22;6022;48.768;18.608;2022-11-15T06:49:05;4.60;99.90
11925;DHT22;6022;48.768;18.608;2022-11-15T06:51:35;4.60;99.90
11925;DHT22;6022;48.768;18.608;2022-11-15T06:54:02;4.70;99.90
11925;DHT22;6022;48.768;18.608;2022-11-15T06:56:29;4.70;99.90
11925;DHT22;6022;48.768;18.608;2022-11-15T06:58:57;4.80;99.90
11925;DHT22;6022;48.768;18.608;2022-11-15T07:01:24;4.80;99.90
11925;DHT22;6022;48.768;18.608;2022-11-15T07:03:51;4.80;99.90
11925;DHT22;6022;48.768;18.608;2022-11-15T07:06:18;4.90;99.90
11925;DHT22;6022;48.768;18.608;2022-11-15T07:08:46;5.00;99.90
11925;DHT22;6022;48.768;18.608;2022-11-15T07:11:13;4.80;99.90
11925;DHT22;6022;48.768;18.608;2022-11-15T07:13:41;5.10;99.90
11925;DHT22;6022;48.768;18.608;2022-11-15T07:16:09;5.20;99.90
11925;DHT22;6022;48.768;18.608;2022-11-15T07:18:38;5.30;99.90
11925;DHT22;6022;48.768;18.608;2022-11-15T07:21:09;5.30;99.90
11925;DHT22;6022;48.768;18.608;2022-11-15T07:23:38;5.60;99.90
11925;DHT22;6022;48.768;18.608;2022-11-15T07:26:07;5.90;99.90
11925;DHT22;6022;48.768;18.608;2022-11-15T07:28:35;6.00;99.90
11925;DHT22;6022;48.768;18.608;2022-11-15T07:31:08;6.20;99.90
11925;DHT22;6022;48.768;18.608;2022-11-15T07:33:36;6.60;99.90
11925;DHT22;6022;48.768;18.608;2022-11-15T07:36:05;6.50;99.90
11925;DHT22;6022;48.768;18.608;2022-11-15T07:38:34;6.70;99.90
11925;DHT22;6022;48.768;18.608;2022-11-15T07:41:08;6.60;99.90
11925;DHT22;6022;48.768;18.608;2022-11-15T07:43:36;6.30;99.90
11925;DHT22;6022;48.768;18.608;2022-11-15T07:46:07;6.60;99.90
11925;DHT22;6022;48.768;18.608;2022-11-15T07:48:37;6.60;99.90
11925;DHT22;6022;48.768;18.608;2022-11-15T07:51:15;6.70;99.90
11925;DHT22;6022;48.768;18.608;2022-11-15T07:53:43;6.80;99.90
11925;DHT22;6022;48.768;18.608;2022-11-15T07:56:11;6.90;99.90
11925;DHT22;6022;48.768;18.608;2022-11-15T07:58:39;7.30;99.90
11925;DHT22;6022;48.768;18.608;2022-11-15T08:01:08;7.00;99.90
11925;DHT22;6022;48.768;18.608;2022-11-15T08:03:37;7.30;99.90
11925;DHT22;6022;48.768;18.608;2022-11-15T08:06:05;7.40;99.90
11925;DHT22;6022;48.768;18.608;2022-11-15T08:08:32;7.70;99.90
11925;DHT22;6022;48.768;18.608;2022-11-15T08:10:59;8.10;99.90
11925;DHT22;6022;48.768;18.608;2022-11-15T08:13:26;8.50;99.90
11925;DHT22;6022;48.768;18.608;2022-11-15T08:16:02;8.70;99.90
11925;DHT22;6022;48.768;18.608;2022-11-15T08:18:32;9.40;99.90
11925;DHT22;6022;48.768;18.608;2022-11-15T08:21:00;9.60;99.90
11925;DHT22;6022;48.768;18.608;2022-11-15T08:23:28;10.20;99.90
11925;DHT22;6022;48.768;18.608;2022-11-15T08:26:03;10.50;99.90
11925;DHT22;6022;48.768;18.608;2022-11-15T08:28:31;10.90;99.90
11925;DHT22;6022;48.768;18.608;2022-11-15T08:30:58;10.90;99.90
11925;DHT22;6022;48.768;18.608;2022-11-15T08:33:26;11.30;99.90
11925;DHT22;6022;48.768;18.608;2022-11-15T08:35:59;11.40;99.90
11925;DHT22;6022;48.768;18.608;2022-11-15T08:38:27;10.70;99.90
11925;DHT22;6022;48.768;18.608;2022-11-15T08:41:04;10.30;99.90
11925;DHT22;6022;48.768;18.608;2022-11-15T08:43:32;10.00;99.90
11925;DHT22;6022;48.768;18.608;2022-11-15T08:46:00;10.10;99.90
11925;DHT22;6022;48.768;18.608;2022-11-15T08:48:27;9.90;99.90
11925;DHT22;6022;48.768;18.608;2022-11-15T08:50:56;9.60;99.90
11925;DHT22;6022;48.768;18.608;2022-11-15T08:53:23;9.90;99.90
11925;DHT22;6022;48.768;18.608;2022-11-15T08:55:50;9.90;99.90
11925;DHT22;6022;48.768;18.608;2022-11-15T08:58:18;10.60;99.90
11925;DHT22;6022;48.768;18.608;2022-11-15T09:00:45;11.00;99.90
11925;DHT22;6022;48.768;18.608;2022-11-15T09:03:13;11.40;99.90
11925;DHT22;6022;48.768;18.608;2022-11-15T09:05:40;11.50;99.90
11925;DHT22;6022;48.768;18.608;2022-11-15T09:08:07;11.30;99.90
11925;DHT22;6022;48.768;18.608;2022-11-15T09:10:54;11.40;99.90
11925;DHT22;6022;48.768;18.608;2022-11-15T09:13:22;11.00;99.90
11925;DHT22;6022;48.768;18.608;2022-11-15T09:15:49;11.10;99.90
11925;DHT22;6022;48.768;18.608;2022-11-15T09:18:16;10.70;99.90
11925;DHT22;6022;48.768;18.608;2022-11-15T09:20:43;10.50;99.90
11925;DHT22;6022;48.768;18.608;2022-11-15T09:23:11;10.30;99.90
11925;DHT22;6022;48.768;18.608;2022-11-15T09:25:38;10.70;99.90
11925;DHT22;6022;48.768;18.608;2022-11-15T09:28:07;10.90;99.90
11925;DHT22;6022;48.768;18.608;2022-11-15T09:30:34;11.40;99.90
11925;DHT22;6022;48.768;18.608;2022-11-15T09:33:09;11.30;99.90
11925;DHT22;6022;48.768;18.608;2022-11-15T09:35:37;11.40;99.90
11925;DHT22;6022;48.768;18.608;2022-11-15T09:38:04;11.50;99.90
11925;DHT22;6022;48.768;18.608;2022-11-15T09:40:32;11.80;99.90
11925;DHT22;6022;48.768;18.608;2022-11-15T09:43:25;11.80;99.90
11925;DHT22;6022;48.768;18.608;2022-11-15T09:48:56;12.10;99.90
11925;DHT22;6022;48.768;18.608;2022-11-15T09:51:32;11.90;99.90
11925;DHT22;6022;48.768;18.608;2022-11-15T09:57:06;12.60;99.90
11925;DHT22;6022;48.768;18.608;2022-11-15T10:03:08;12.60;99.90
11925;DHT22;6022;48.768;18.608;2022-11-15T10:05:47;12.90;99.90
11925;DHT22;6022;48.768;18.608;2022-11-15T10:11:17;12.70;99.90
11925;DHT22;6022;48.768;18.608;2022-11-15T10:14:18;12.60;99.90
11925;DHT22;6022;48.768;18.608;2022-11-15T10:22:43;12.70;99.90
11925;DHT22;6022;48.768;18.608;2022-11-15T10:25:33;12.70;99.90
11925;DHT22;6022;48.768;18.608;2022-11-15T10:28:10;12.40;99.90
11925;DHT22;6022;48.768;18.608;2022-11-15T10:30:51;12.50;99.90
11925;DHT22;6022;48.768;18.608;2022-11-15T10:36:19;12.50;99.90
11925;DHT22;6022;48.768;18.608;2022-11-15T10:41:38;12.10;99.90
11925;DHT22;6022;48.768;18.608;2022-11-15T10:46:45;12.20;99.90
11925;DHT22;6022;48.768;18.608;2022-11-15T10:49:26;12.20;99.90
11925;DHT22;6022;48.768;18.608;2022-11-15T10:57:17;11.90;99.90
11925;DHT22;6022;48.768;18.608;2022-11-15T10:59:52;11.90;99.90
11925;DHT22;6022;48.768;18.608;2022-11-15T11:02:34;11.80;99.90
11925;DHT22;6022;48.768;18.608;2022-11-15T11:05:12;11.60;99.90
11925;DHT22;6022;48.768;18.608;2022-11-15T11:11:00;11.40;99.90
11925;DHT22;6022;48.768;18.608;2022-11-15T11:13:40;11.50;99.90
11925;DHT22;6022;48.768;18.608;2022-11-15T11:36:51;11.60;99.90
11925;DHT22;6022;48.768;18.608;2022-11-15T11:53:57;11.60;99.90
11925;DHT22;6022;48.768;18.608;2022-11-15T11:56:36;11.60;99.90
11925;DHT22;6022;48.768;18.608;2022-11-15T12:01:44;11.50;99.90
11925;DHT22;6022;48.768;18.608;2022-11-15T12:04:24;11.50;99.90
11925;DHT22;6022;48.768;18.608;2022-11-15T12:07:24;11.50;99.90
11925;DHT22;6022;48.768;18.608;2022-11-15T12:10:14;11.60;99.90
11925;DHT22;6022;48.768;18.608;2022-11-15T12:15:59;11.50;99.90
11925;DHT22;6022;48.768;18.608;2022-11-15T12:18:53;11.50;99.90
11925;DHT22;6022;48.768;18.608;2022-11-15T12:21:34;11.50;99.90
11925;DHT22;6022;48.768;18.608;2022-11-15T12:30:12;11.60;99.90
11925;DHT22;6022;48.768;18.608;2022-11-15T12:32:59;11.50;99.90
11925;DHT22;6022;48.768;18.608;2022-11-15T12:35:35;11.30;99.90
11925;DHT22;6022;48.768;18.608;2022-11-15T12:38:09;11.20;99.90
11925;DHT22;6022;48.768;18.608;2022-11-15T12:41:15;11.50;99.90
11925;DHT22;6022;48.768;18.608;2022-11-15T12:43:47;11.40;99.90
11925;DHT22;6022;48.768;18.608;2022-11-15T12:51:21;11.60;99.90
11925;DHT22;6022;48.768;18.608;2022-11-15T13:17:50;11.50;99.90
11925;DHT22;6022;48.768;18.608;2022-11-15T13:20:28;11.20;99.90
11925;DHT22;6022;48.768;18.608;2022-11-15T13:28:42;11.50;99.90
11925;DHT22;6022;48.768;18.608;2022-11-15T13:31:25;11.50;99.90
11925;DHT22;6022;48.768;18.608;2022-11-15T13:33:59;11.70;99.90
11925;DHT22;6022;48.768;18.608;2022-11-15T13:36:31;11.70;99.90
11925;DHT22;6022;48.768;18.608;2022-11-15T13:39:11;11.70;99.90
11925;DHT22;6022;48.768;18.608;2022-11-15T13:41:48;11.60;99.90
11925;DHT22;6022;48.768;18.608;2022-11-15T13:44:32;11.70;99.90
11925;DHT22;6022;48.768;18.608;2022-11-15T13:47:20;11.70;99.90
11925;DHT22;6022;48.768;18.608;2022-11-15T13:49:47;11.60;99.90
11925;DHT22;6022;48.768;18.608;2022-11-15T13:52:15;11.70;99.90
11925;DHT22;6022;48.768;18.608;2022-11-15T13:54:50;11.60;99.90
11925;DHT22;6022;48.768;18.608;2022-11-15T13:57:40;11.60;99.90
11925;DHT22;6022;48.768;18.608;2022-11-15T14:03:25;11.70;99.90
11925;DHT22;6022;48.768;18.608;2022-11-15T14:06:11;11.70;99.90
11925;DHT22;6022;48.768;18.608;2022-11-15T14:11:26;11.60;99.90
11925;DHT22;6022;48.768;18.608;2022-11-15T14:16:42;11.50;99.90
11925;DHT22;6022;48.768;18.608;2022-11-15T14:24:42;11.30;99.90
11925;DHT22;6022;48.768;18.608;2022-11-15T14:27:27;11.20;99.90
11925;DHT22;6022;48.768;18.608;2022-11-15T14:29:55;11.10;99.90
11925;DHT22;6022;48.768;18.608;2022-11-15T14:34:55;10.90;99.90
11925;DHT22;6022;48.768;18.608;2022-11-15T14:37:32;11.20;99.90
11925;DHT22;6022;48.768;18.608;2022-11-15T14:40:03;11.20;99.90
11925;DHT22;6022;48.768;18.608;2022-11-15T14:42:32;11.40;99.90
11925;DHT22;6022;48.768;18.608;2022-11-15T14:44:59;11.10;99.90
11925;DHT22;6022;48.768;18.608;2022-11-15T14:47:27;10.90;99.90
11925;DHT22;6022;48.768;18.608;2022-11-15T14:49:54;11.00;99.90
11925;DHT22;6022;48.768;18.608;2022-11-15T14:52:29;10.90;99.90
11925;DHT22;6022;48.768;18.608;2022-11-15T14:55:03;11.00;99.90
11925;DHT22;6022;48.768;18.608;2022-11-15T14:57:36;10.90;99.90
11925;DHT22;6022;48.768;18.608;2022-11-15T15:00:04;10.90;99.90
11925;DHT22;6022;48.768;18.608;2022-11-15T15:02:32;10.70;99.90
11925;DHT22;6022;48.768;18.608;2022-11-15T15:04:59;10.90;99.90
11925;DHT22;6022;48.768;18.608;2022-11-15T15:07:29;11.00;99.90
11925;DHT22;6022;48.768;18.608;2022-11-15T15:09:57;10.60;99.90
11925;DHT22;6022;48.768;18.608;2022-11-15T15:12:44;10.50;99.90
11925;DHT22;6022;48.768;18.608;2022-11-15T15:15:32;10.50;99.90
11925;DHT22;6022;48.768;18.608;2022-11-15T15:18:01;10.40;99.90
11925;DHT22;6022;48.768;18.608;2022-11-15T15:20:34;10.50;99.90
11925;DHT22;6022;48.768;18.608;2022-11-15T15:23:05;10.40;99.90
11925;DHT22;6022;48.768;18.608;2022-11-15T15:25:35;10.50;99.90
11925;DHT22;6022;48.768;18.608;2022-11-15T15:28:02;10.40;99.90
11925;DHT22;6022;48.768;18.608;2022-11-15T15:30:30;10.40;99.90
11925;DHT22;6022;48.768;18.608;2022-11-15T15:32:57;10.60;99.90
11925;DHT22;6022;48.768;18.608;2022-11-15T15:35:29;10.50;99.90
11925;DHT22;6022;48.768;18.608;2022-11-15T15:37:59;10.20;99.90
11925;DHT22;6022;48.768;18.608;2022-11-15T15:40:29;10.50;99.90
11925;DHT22;6022;48.768;18.608;2022-11-15T15:42:59;10.40;99.90
11925;DHT22;6022;48.768;18.608;2022-11-15T15:45:28;10.10;99.90
11925;DHT22;6022;48.768;18.608;2022-11-15T15:47:56;10.40;99.90
11925;DHT22;6022;48.768;18.608;2022-11-15T15:50:33;10.40;99.90
11925;DHT22;6022;48.768;18.608;2022-11-15T15:53:03;10.30;99.90
11925;DHT22;6022;48.768;18.608;2022-11-15T15:55:31;10.20;99.90
11925;DHT22;6022;48.768;18.608;2022-11-15T15:57:58;10.30;99.90
11925;DHT22;6022;48.768;18.608;2022-11-15T16:00:25;10.20;99.90
11925;DHT22;6022;48.768;18.608;2022-11-15T16:02:53;10.20;99.90
11925;DHT22;6022;48.768;18.608;2022-11-15T16:05:21;10.40;99.90
11925;DHT22;6022;48.768;18.608;2022-11-15T16:07:49;10.40;99.90
11925;DHT22;6022;48.768;18.608;2022-11-15T16:10:25;10.00;99.90
11925;DHT22;6022;48.768;18.608;2022-11-15T16:12:54;10.10;99.90
11925;DHT22;6022;48.768;18.608;2022-11-15T16:15:24;10.30;99.90
11925;DHT22;6022;48.768;18.608;2022-11-15T16:17:58;10.30;99.90
11925;DHT22;6022;48.768;18.608;2022-11-15T16:20:42;10.00;99.90
11925;DHT22;6022;48.768;18.608;2022-11-15T16:23:13;10.10;99.90
11925;DHT22;6022;48.768;18.608;2022-11-15T16:31:10;10.30;99.90
11925;DHT22;6022;48.768;18.608;2022-11-15T16:33:39;10.50;99.90
11925;DHT22;6022;48.768;18.608;2022-11-15T16:36:23;10.40;99.90
11925;DHT22;6022;48.768;18.608;2022-11-15T16:38:57;10.10;99.90
11925;DHT22;6022;48.768;18.608;2022-11-15T16:41:31;10.10;99.90
11925;DHT22;6022;48.768;18.608;2022-11-15T16:43:59;10.40;99.90
11925;DHT22;6022;48.768;18.608;2022-11-15T16:46:27;10.20;99.90
11925;DHT22;6022;48.768;18.608;2022-11-15T16:48:56;10.30;99.90
11925;DHT22;6022;48.768;18.608;2022-11-15T16:51:23;10.10;99.90
11925;DHT22;6022;48.768;18.608;2022-11-15T16:53:51;10.20;99.90
11925;DHT22;6022;48.768;18.608;2022-11-15T16:58:54;10.20;99.90
11925;DHT22;6022;48.768;18.608;2022-11-15T17:01:26;10.10;99.90
11925;DHT22;6022;48.768;18.608;2022-11-15T17:03:55;10.10;99.90
11925;DHT22;6022;48.768;18.608;2022-11-15T17:06:25;10.10;99.90
11925;DHT22;6022;48.768;18.608;2022-11-15T17:08:52;10.10;99.90
11925;DHT22;6022;48.768;18.608;2022-11-15T17:11:21;10.10;99.90
11925;DHT22;6022;48.768;18.608;2022-11-15T17:13:48;10.10;99.90
11925;DHT22;6022;48.768;18.608;2022-11-15T17:16:17;10.00;99.90
11925;DHT22;6022;48.768;18.608;2022-11-15T17:18:49;9.90;99.90
11925;DHT22;6022;48.768;18.608;2022-11-15T17:21:19;9.80;99.90
11925;DHT22;6022;48.768;18.608;2022-11-15T17:23:47;10.10;99.90
11925;DHT22;6022;48.768;18.608;2022-11-15T17:26:15;9.70;99.90
11925;DHT22;6022;48.768;18.608;2022-11-15T17:28:56;9.80;99.90
11925;DHT22;6022;48.768;18.608;2022-11-15T17:31:24;10.10;99.90
11925;DHT22;6022;48.768;18.608;2022-11-15T17:33:53;9.90;99.90
11925;DHT22;6022;48.768;18.608;2022-11-15T17:36:20;10.00;99.90
11925;DHT22;6022;48.768;18.608;2022-11-15T17:38:48;9.90;99.90
11925;DHT22;6022;48.768;18.608;2022-11-15T17:41:25;9.90;99.90
11925;DHT22;6022;48.768;18.608;2022-11-15T17:43:52;9.90;99.90
11925;DHT22;6022;48.768;18.608;2022-11-15T17:46:23;10.00;99.90
11925;DHT22;6022;48.768;18.608;2022-11-15T17:48:51;9.90;99.90
11925;DHT22;6022;48.768;18.608;2022-11-15T17:51:19;9.80;99.90
11925;DHT22;6022;48.768;18.608;2022-11-15T17:53:47;9.90;99.90
11925;DHT22;6022;48.768;18.608;2022-11-15T17:56:18;9.60;99.90
11925;DHT22;6022;48.768;18.608;2022-11-15T17:58:48;9.90;99.90
11925;DHT22;6022;48.768;18.608;2022-11-15T18:01:23;9.80;99.90
11925;DHT22;6022;48.768;18.608;2022-11-15T18:03:53;10.00;99.90
11925;DHT22;6022;48.768;18.608;2022-11-15T18:06:23;9.90;99.90
11925;DHT22;6022;48.768;18.608;2022-11-15T18:08:54;9.90;99.90
11925;DHT22;6022;48.768;18.608;2022-11-15T18:11:33;9.90;99.90
11925;DHT22;6022;48.768;18.608;2022-11-15T18:14:09;9.90;99.90
11925;DHT22;6022;48.768;18.608;2022-11-15T18:16:39;9.90;99.90
11925;DHT22;6022;48.768;18.608;2022-11-15T18:19:08;9.80;99.90
11925;DHT22;6022;48.768;18.608;2022-11-15T18:21:41;9.60;99.90
11925;DHT22;6022;48.768;18.608;2022-11-15T18:24:28;9.70;99.90
11925;DHT22;6022;48.768;18.608;2022-11-15T18:26:58;9.70;99.90
11925;DHT22;6022;48.768;18.608;2022-11-15T18:29:25;9.80;99.90
11925;DHT22;6022;48.768;18.608;2022-11-15T18:31:53;9.60;99.90
11925;DHT22;6022;48.768;18.608;2022-11-15T18:34:23;9.50;99.90
11925;DHT22;6022;48.768;18.608;2022-11-15T18:37:01;9.70;99.90
11925;DHT22;6022;48.768;18.608;2022-11-15T18:39:29;9.60;99.90
11925;DHT22;6022;48.768;18.608;2022-11-15T18:41:56;9.70;99.90
11925;DHT22;6022;48.768;18.608;2022-11-15T18:44:24;9.50;99.90
11925;DHT22;6022;48.768;18.608;2022-11-15T18:46:51;9.50;99.90
11925;DHT22;6022;48.768;18.608;2022-11-15T18:49:22;9.70;99.90
11925;DHT22;6022;48.768;18.608;2022-11-15T18:51:49;9.70;99.90
11925;DHT22;6022;48.768;18.608;2022-11-15T18:54:16;9.30;99.90
11925;DHT22;6022;48.768;18.608;2022-11-15T18:56:44;9.60;99.90
11925;DHT22;6022;48.768;18.608;2022-11-15T18:59:13;9.90;99.90